Time;durP1;ratioP1;P1;durP2;ratioP2;P2;SDS_P1;SDS_P2;PMS_P1;PMS_P2;Temp;Humidity;BMP_temperature;BMP_pressure;BME280_temperature;BME280_humidity;BME280_pressure;Samples;Min_cycle;Max_cycle;Signal;HPM_P1;HPM_P2
2023/07/13 00:02:23;;;;;;;4.73;1.67;;;21.10;99.90;;;;;;5050233;28;20503;-66
2023/07/13 00:04:49;;;;;;;3.87;1.50;;;21.10;99.90;;;;;;5050412;28;20461;-66
2023/07/13 00:07:14;;;;;;;4.30;1.67;;;21.00;99.90;;;;;;5048864;28;20513;-66
2023/07/13 00:09:41;;;;;;;4.77;1.80;;;21.00;99.90;;;;;;5050569;28;20188;-66
2023/07/13 00:12:23;;;;;;;4.13;2.13;;;21.00;99.90;;;;;;5050156;28;20563;-65
2023/07/13 00:14:50;;;;;;;8.00;2.27;;;20.90;99.90;;;;;;5050526;28;20886;-65
2023/07/13 00:17:15;;;;;;;1.53;1.43;;;20.90;99.90;;;;;;5050446;28;20434;-66
2023/07/13 00:19:41;;;;;;;3.33;1.77;;;20.90;99.90;;;;;;5048519;28;20470;-67
2023/07/13 00:22:06;;;;;;;3.10;1.40;;;20.80;99.90;;;;;;5049023;28;20203;-66
2023/07/13 00:24:32;;;;;;;2.83;1.70;;;20.80;99.90;;;;;;5049996;28;20184;-66
2023/07/13 00:26:57;;;;;;;3.10;1.47;;;20.70;99.90;;;;;;5050096;28;20588;-66
2023/07/13 00:29:23;;;;;;;3.23;2.00;;;20.70;99.90;;;;;;5049896;28;20328;-66
2023/07/13 00:31:49;;;;;;;4.30;1.70;;;20.70;99.90;;;;;;5049899;28;20207;-66
2023/07/13 00:34:14;;;;;;;2.90;1.50;;;20.60;99.90;;;;;;5049880;28;20185;-65
2023/07/13 00:36:40;;;;;;;6.20;1.60;;;20.60;99.90;;;;;;5049815;28;20184;-66
2023/07/13 00:39:05;;;;;;;2.37;1.33;;;20.60;99.90;;;;;;5049952;28;20601;-66
2023/07/13 00:41:31;;;;;;;6.10;1.60;;;20.50;99.90;;;;;;5049774;28;20257;-66
2023/07/13 00:43:57;;;;;;;4.27;1.30;;;20.50;99.90;;;;;;5049780;28;20189;-64
2023/07/13 00:46:28;;;;;;;2.30;1.13;;;20.50;99.90;;;;;;5049975;28;20194;-66
2023/07/13 00:48:57;;;;;;;7.10;1.40;;;20.50;99.90;;;;;;5049629;28;20193;-65
2023/07/13 00:51:56;;;;;;;3.40;1.50;;;20.50;99.90;;;;;;5048111;28;20448;-66
2023/07/13 00:54:30;;;;;;;6.30;1.83;;;20.50;99.90;;;;;;5048866;28;20431;-66
2023/07/13 00:57:00;;;;;;;6.47;1.30;;;20.50;99.90;;;;;;5048150;28;20432;-66
2023/07/13 00:59:26;;;;;;;2.73;1.10;;;20.50;99.90;;;;;;5049627;28;20460;-65
2023/07/13 01:01:52;;;;;;;3.20;1.23;;;20.40;99.90;;;;;;5047958;28;20454;-66
2023/07/13 01:04:18;;;;;;;4.20;1.43;;;20.40;99.90;;;;;;5049573;28;20419;-65
2023/07/13 01:06:46;;;;;;;2.73;1.50;;;20.40;99.90;;;;;;5049768;28;20420;-66
2023/07/13 01:09:14;;;;;;;5.10;1.53;;;20.40;99.90;;;;;;5049701;28;20415;-66
2023/07/13 01:11:41;;;;;;;5.83;1.50;;;20.40;99.90;;;;;;5049824;28;20443;-66
2023/07/13 01:14:07;;;;;;;1.60;1.50;;;20.40;99.90;;;;;;5048395;28;20441;-65
2023/07/13 01:16:35;;;;;;;4.03;1.60;;;20.40;99.90;;;;;;5049811;28;20476;-65
2023/07/13 01:19:03;;;;;;;4.23;1.77;;;20.40;99.90;;;;;;5049834;28;20472;-65
2023/07/13 01:21:32;;;;;;;3.10;1.50;;;20.30;99.90;;;;;;5049378;28;20584;-65
2023/07/13 01:23:58;;;;;;;2.67;1.60;;;20.40;99.90;;;;;;5049358;28;20421;-65
2023/07/13 01:26:24;;;;;;;2.07;1.53;;;20.30;99.90;;;;;;5047750;28;20433;-67
2023/07/13 01:28:49;;;;;;;2.47;1.40;;;20.30;99.90;;;;;;5048942;28;20796;-66
2023/07/13 01:31:15;;;;;;;4.97;1.50;;;20.30;99.90;;;;;;5048886;28;20450;-66
2023/07/13 01:33:41;;;;;;;1.80;1.43;;;20.30;99.90;;;;;;5048710;28;20685;-65
2023/07/13 01:36:08;;;;;;;3.43;1.70;;;20.20;99.90;;;;;;5048783;28;20551;-65
2023/07/13 01:38:35;;;;;;;4.07;1.50;;;20.20;99.90;;;;;;5048563;28;20980;-66
2023/07/13 01:41:01;;;;;;;4.03;1.77;;;20.20;99.90;;;;;;5048435;28;20815;-66
2023/07/13 01:43:27;;;;;;;6.03;1.63;;;20.20;99.90;;;;;;5048558;28;20422;-66
2023/07/13 01:45:52;;;;;;;2.00;1.47;;;20.20;99.90;;;;;;5047177;28;20433;-66
2023/07/13 01:48:19;;;;;;;4.30;1.57;;;20.20;99.90;;;;;;5048655;28;20186;-66
2023/07/13 01:50:45;;;;;;;5.03;1.20;;;20.10;99.90;;;;;;5048379;28;20698;-66
2023/07/13 01:53:11;;;;;;;2.10;1.53;;;20.10;99.90;;;;;;5048408;28;20434;-66
2023/07/13 01:55:38;;;;;;;2.83;1.60;;;20.10;99.90;;;;;;5048354;28;20194;-66
2023/07/13 01:58:04;;;;;;;1.30;1.20;;;20.10;99.90;;;;;;5048202;28;21109;-66
2023/07/13 02:00:30;;;;;;;9.13;1.87;;;20.10;99.90;;;;;;5048375;28;20801;-66
2023/07/13 02:02:56;;;;;;;4.20;1.40;;;20.10;99.90;;;;;;5048166;28;20434;-66
2023/07/13 02:05:21;;;;;;;4.97;1.53;;;20.10;99.90;;;;;;5046758;28;20431;-66
2023/07/13 02:07:47;;;;;;;2.17;1.10;;;20.10;99.90;;;;;;5048206;28;20618;-66
2023/07/13 02:10:14;;;;;;;4.50;1.40;;;20.00;99.90;;;;;;5048223;28;20186;-65
2023/07/13 02:12:40;;;;;;;3.40;1.47;;;20.00;99.90;;;;;;5048209;28;20573;-65
2023/07/13 02:15:06;;;;;;;8.37;1.30;;;20.00;99.90;;;;;;5048175;28;20433;-65
2023/07/13 02:17:33;;;;;;;3.87;1.10;;;20.00;99.90;;;;;;5048245;28;20435;-66
2023/07/13 02:19:59;;;;;;;5.83;1.70;;;19.90;99.90;;;;;;5048176;28;20805;-66
2023/07/13 02:22:24;;;;;;;6.67;1.40;;;19.90;99.90;;;;;;5047944;28;20471;-66
2023/07/13 02:24:50;;;;;;;4.03;1.37;;;19.80;99.90;;;;;;5048093;28;20188;-65
2023/07/13 02:27:16;;;;;;;4.70;1.20;;;19.80;99.90;;;;;;5048005;28;20191;-65
2023/07/13 02:29:41;;;;;;;6.20;1.83;;;19.70;99.90;;;;;;5047923;28;20679;-65
2023/07/13 02:32:08;;;;;;;2.13;1.50;;;19.70;99.90;;;;;;5047964;28;20207;-65
2023/07/13 02:34:34;;;;;;;2.77;1.67;;;19.70;99.90;;;;;;5047988;28;20219;-65
2023/07/13 02:36:59;;;;;;;2.33;1.40;;;19.50;99.90;;;;;;5047961;28;20522;-66
2023/07/13 02:39:25;;;;;;;1.80;1.23;;;19.50;99.90;;;;;;5047873;28;20572;-65
2023/07/13 02:41:50;;;;;;;2.03;1.30;;;19.30;99.90;;;;;;5047821;28;20284;-66
2023/07/13 02:44:16;;;;;;;4.13;1.60;;;19.20;99.90;;;;;;5048899;28;20536;-65
2023/07/13 02:46:42;;;;;;;4.60;1.30;;;19.10;99.90;;;;;;5051797;28;20207;-65
2023/07/13 02:49:07;;;;;;;3.27;1.67;;;19.10;99.90;;;;;;5051740;28;20514;-66
2023/07/13 02:51:34;;;;;;;6.27;1.80;;;19.00;99.90;;;;;;5051724;28;20231;-66
2023/07/13 02:54:01;;;;;;;2.63;1.60;;;19.00;99.90;;;;;;5051766;28;20654;-66
2023/07/13 02:56:29;;;;;;;3.90;1.50;;;18.90;99.90;;;;;;5051519;28;20435;-65
2023/07/13 02:58:54;;;;;;;5.57;1.50;;;18.80;99.90;;;;;;5051492;28;20469;-66
2023/07/13 03:01:21;;;;;;;3.67;1.50;;;18.80;99.90;;;;;;5051617;28;20448;-65
2023/07/13 03:03:48;;;;;;;3.00;1.43;;;18.80;99.90;;;;;;5051547;28;20183;-65
2023/07/13 03:06:14;;;;;;;2.50;1.40;;;18.70;99.90;;;;;;5051495;28;20421;-65
2023/07/13 03:08:41;;;;;;;7.83;2.53;;;18.60;99.90;;;;;;5051445;28;21049;-66
2023/07/13 03:11:10;;;;;;;5.93;1.50;;;18.60;99.90;;;;;;5051335;28;20433;-65
2023/07/13 03:13:37;;;;;;;3.57;1.63;;;18.60;99.90;;;;;;5051153;28;20929;-65
2023/07/13 03:16:03;;;;;;;5.20;1.60;;;18.30;99.90;;;;;;5051327;28;20436;-65
2023/07/13 03:18:29;;;;;;;9.47;1.70;;;18.20;99.90;;;;;;5051188;28;21326;-65
2023/07/13 03:20:54;;;;;;;5.50;1.57;;;18.30;99.90;;;;;;5051460;28;20410;-65
2023/07/13 03:23:21;;;;;;;10.97;2.07;;;18.30;99.90;;;;;;5051074;28;20421;-65
2023/07/13 03:25:47;;;;;;;4.90;1.53;;;18.40;99.90;;;;;;5051120;28;20205;-66
2023/07/13 03:28:14;;;;;;;2.17;1.17;;;18.40;99.90;;;;;;5050831;28;20416;-65
2023/07/13 03:30:39;;;;;;;7.97;1.87;;;18.50;99.90;;;;;;5051256;28;20422;-65
2023/07/13 03:33:05;;;;;;;10.17;1.97;;;18.50;99.90;;;;;;5050963;28;21084;-65
2023/07/13 03:35:32;;;;;;;4.40;1.27;;;18.50;99.90;;;;;;5049678;28;20737;-65
2023/07/13 03:37:58;;;;;;;9.60;1.40;;;18.50;99.90;;;;;;5050825;28;20597;-65
2023/07/13 03:40:25;;;;;;;2.40;1.50;;;18.40;99.90;;;;;;5050921;28;20914;-65
2023/07/13 03:42:51;;;;;;;3.43;1.33;;;18.20;99.90;;;;;;5050904;28;20975;-65
2023/07/13 03:45:17;;;;;;;8.57;1.30;;;18.10;99.90;;;;;;5050850;28;20425;-65
2023/07/13 03:47:43;;;;;;;2.57;1.60;;;17.90;99.90;;;;;;5051029;28;20433;-64
2023/07/13 03:50:09;;;;;;;3.20;1.33;;;17.80;99.90;;;;;;5051253;28;20194;-64
2023/07/13 03:52:34;;;;;;;4.27;1.43;;;17.80;99.90;;;;;;5051763;28;20198;-64
2023/07/13 03:55:00;;;;;;;2.97;1.23;;;17.80;99.90;;;;;;5051312;28;20184;-65
2023/07/13 03:57:26;;;;;;;3.90;2.07;;;17.70;99.90;;;;;;5049924;28;20306;-64
2023/07/13 03:59:51;;;;;;;2.30;1.63;;;17.80;99.90;;;;;;5050956;28;20210;-66
2023/07/13 04:02:17;;;;;;;10.83;1.70;;;17.90;99.90;;;;;;5050800;28;20209;-65
2023/07/13 04:04:43;;;;;;;6.33;1.67;;;18.00;99.90;;;;;;5050480;28;20666;-65
2023/07/13 04:07:09;;;;;;;3.97;1.50;;;18.00;99.90;;;;;;5049126;28;20329;-65
2023/07/13 04:09:35;;;;;;;3.00;1.70;;;18.10;99.90;;;;;;5050392;28;20502;-65
2023/07/13 04:12:01;;;;;;;7.90;1.80;;;18.10;99.90;;;;;;5050308;28;20212;-65
2023/07/13 04:14:26;;;;;;;2.57;1.73;;;18.10;99.90;;;;;;5050126;28;20426;-65
2023/07/13 04:16:54;;;;;;;2.20;1.53;;;18.00;99.90;;;;;;5050255;28;20791;-66
2023/07/13 04:19:20;;;;;;;5.23;1.30;;;18.00;99.90;;;;;;5050187;28;20291;-65
2023/07/13 04:21:45;;;;;;;4.10;1.43;;;18.00;99.90;;;;;;5050049;28;20782;-65
2023/07/13 04:24:11;;;;;;;3.30;1.60;;;18.10;99.90;;;;;;5048632;28;20423;-64
2023/07/13 04:26:38;;;;;;;4.53;2.00;;;18.10;99.90;;;;;;5050400;28;20191;-64
2023/07/13 04:29:04;;;;;;;4.60;1.80;;;18.20;99.90;;;;;;5049966;28;20442;-64
2023/07/13 04:31:31;;;;;;;5.10;1.60;;;18.20;99.90;;;;;;5049925;28;20443;-64
2023/07/13 04:33:56;;;;;;;3.73;1.93;;;18.20;99.90;;;;;;5049768;28;20423;-65
2023/07/13 04:36:22;;;;;;;5.03;2.10;;;18.30;99.90;;;;;;5049767;28;20449;-64
2023/07/13 04:38:48;;;;;;;5.43;2.13;;;18.30;99.90;;;;;;5049956;28;20229;-74
2023/07/13 04:41:15;;;;;;;3.50;1.67;;;18.30;99.90;;;;;;5049677;28;20200;-73
2023/07/13 04:43:41;;;;;;;2.60;2.10;;;18.30;99.90;;;;;;5048242;28;20946;-74
2023/07/13 04:46:10;;;;;;;6.23;2.20;;;18.30;99.90;;;;;;5048280;28;20465;-75
2023/07/13 04:48:37;;;;;;;4.90;1.73;;;18.30;99.90;;;;;;5049720;28;20441;-75
2023/07/13 04:51:03;;;;;;;3.93;1.70;;;18.30;99.90;;;;;;5049366;28;20422;-74
2023/07/13 04:53:29;;;;;;;7.93;1.80;;;18.30;99.90;;;;;;5050017;28;20414;-73
2023/07/13 04:55:55;;;;;;;5.47;2.10;;;18.30;99.90;;;;;;5049325;28;20428;-75
2023/07/13 04:58:22;;;;;;;6.47;1.70;;;18.30;99.90;;;;;;5049118;28;20474;-75
2023/07/13 05:00:48;;;;;;;7.60;2.00;;;18.30;99.90;;;;;;5048973;28;20183;-77
2023/07/13 05:03:13;;;;;;;4.27;2.03;;;18.40;99.90;;;;;;5048745;28;20421;-75
2023/07/13 05:05:39;;;;;;;5.20;1.93;;;18.40;99.90;;;;;;5048889;28;20176;-72
2023/07/13 05:08:04;;;;;;;4.77;1.77;;;18.40;99.90;;;;;;5048465;28;20187;-73
2023/07/13 05:10:30;;;;;;;10.20;2.00;;;18.50;99.90;;;;;;5047610;28;20188;-75
2023/07/13 05:12:56;;;;;;;7.10;1.80;;;18.40;99.90;;;;;;5048725;28;20326;-73
2023/07/13 05:15:22;;;;;;;11.97;2.00;;;18.60;99.90;;;;;;5048532;28;20186;-73
2023/07/13 05:17:49;;;;;;;7.07;1.60;;;18.60;99.90;;;;;;5047118;28;20684;-74
2023/07/13 05:20:16;;;;;;;4.80;1.60;;;18.70;99.90;;;;;;5048238;28;20406;-74
2023/07/13 05:22:42;;;;;;;4.00;2.33;;;18.70;99.90;;;;;;5048357;28;20470;-74
2023/07/13 05:25:09;;;;;;;4.67;1.60;;;18.70;99.90;;;;;;5046980;28;20425;-73
2023/07/13 05:27:35;;;;;;;5.20;1.80;;;18.80;99.90;;;;;;5048367;28;20417;-73
2023/07/13 05:30:03;;;;;;;2.40;1.70;;;18.80;99.90;;;;;;5048076;28;20464;-73
2023/07/13 05:32:28;;;;;;;4.53;1.90;;;18.80;99.90;;;;;;5047814;28;20464;-75
2023/07/13 05:34:54;;;;;;;1.97;1.50;;;18.70;99.90;;;;;;5048106;28;20430;-75
2023/07/13 05:37:20;;;;;;;4.10;1.50;;;18.70;99.90;;;;;;5029917;28;20184;-74
2023/07/13 05:39:45;;;;;;;5.67;1.80;;;18.60;99.90;;;;;;5046063;28;20207;-74
2023/07/13 05:42:11;;;;;;;5.97;2.30;;;18.60;99.90;;;;;;5029425;28;20200;-74
2023/07/13 05:44:36;;;;;;;4.03;1.80;;;18.80;99.90;;;;;;5045896;28;20570;-75
2023/07/13 05:47:02;;;;;;;6.70;1.57;;;18.80;99.90;;;;;;5045980;28;20629;-73
2023/07/13 05:49:30;;;;;;;3.37;1.67;;;18.90;99.90;;;;;;5047799;28;20190;-73
2023/07/13 05:51:56;;;;;;;4.17;1.40;;;19.00;99.90;;;;;;5048042;28;20204;-74
2023/07/13 05:54:21;;;;;;;4.60;1.60;;;19.10;99.90;;;;;;5048766;28;20418;-74
2023/07/13 05:56:47;;;;;;;4.57;1.50;;;19.10;99.90;;;;;;5046685;28;20424;-74
2023/07/13 05:59:13;;;;;;;7.30;1.97;;;19.10;99.90;;;;;;5046158;28;20222;-75
2023/07/13 06:01:39;;;;;;;6.20;2.30;;;19.10;99.90;;;;;;5047432;28;20609;-75
2023/07/13 06:04:04;;;;;;;3.50;1.70;;;19.10;99.90;;;;;;5047486;28;20418;-74
2023/07/13 06:06:30;;;;;;;5.20;1.30;;;19.20;99.90;;;;;;5047231;28;20172;-74
2023/07/13 06:08:56;;;;;;;3.67;1.33;;;19.40;99.90;;;;;;5047381;28;20183;-74
2023/07/13 06:11:24;;;;;;;8.67;1.90;;;19.60;99.90;;;;;;5047509;28;20639;-75
2023/07/13 06:13:50;;;;;;;3.67;1.13;;;19.70;99.90;;;;;;5047472;28;20191;-74
2023/07/13 06:16:16;;;;;;;12.03;1.97;;;19.70;99.90;;;;;;5047973;28;20430;-75
2023/07/13 06:18:43;;;;;;;3.57;1.53;;;19.80;99.90;;;;;;5046250;28;20461;-75
2023/07/13 06:21:20;;;;;;;8.47;1.97;;;19.90;99.90;;;;;;5051285;28;20445;-73
2023/07/13 06:23:50;;;;;;;4.10;1.80;;;20.10;99.90;;;;;;5051515;28;20501;-75
2023/07/13 06:26:20;;;;;;;2.10;1.20;;;20.30;99.90;;;;;;5050078;28;20430;-75
2023/07/13 06:28:46;;;;;;;2.90;1.20;;;20.40;99.90;;;;;;5051693;28;20829;-74
2023/07/13 06:31:13;;;;;;;4.33;1.63;;;20.50;99.90;;;;;;5051509;28;20449;-74
2023/07/13 06:33:39;;;;;;;4.97;1.63;;;20.70;99.90;;;;;;5050157;28;20187;-74
2023/07/13 06:36:06;;;;;;;3.53;1.50;;;20.60;99.90;;;;;;5051387;28;20794;-64
2023/07/13 06:38:32;;;;;;;4.77;1.90;;;20.70;99.90;;;;;;5051472;28;20477;-64
2023/07/13 06:40:58;;;;;;;3.00;1.57;;;20.60;99.90;;;;;;5049893;28;20418;-64
2023/07/13 06:43:24;;;;;;;4.50;1.90;;;20.60;99.90;;;;;;5051579;28;20648;-66
2023/07/13 06:45:51;;;;;;;4.07;2.00;;;20.50;99.90;;;;;;5051452;28;20229;-65
2023/07/13 06:48:18;;;;;;;1.67;1.57;;;20.50;99.90;;;;;;5050768;28;20449;-63
2023/07/13 06:50:44;;;;;;;5.37;1.93;;;20.50;99.90;;;;;;5050919;28;20414;-65
2023/07/13 06:53:11;;;;;;;4.80;1.50;;;20.60;99.10;;;;;;5050926;28;20414;-66
2023/07/13 06:55:36;;;;;;;3.77;1.40;;;20.70;99.90;;;;;;5050439;28;20422;-65
2023/07/13 06:58:02;;;;;;;5.90;1.70;;;20.80;99.90;;;;;;5050427;28;20524;-66
2023/07/13 07:00:28;;;;;;;4.90;1.60;;;21.00;99.90;;;;;;5050428;28;20176;-67
2023/07/13 07:02:53;;;;;;;4.97;1.40;;;21.10;99.90;;;;;;5050310;28;20214;-66
2023/07/13 07:05:21;;;;;;;3.50;1.37;;;21.20;99.90;;;;;;5050308;28;20187;-66
2023/07/13 07:07:47;;;;;;;7.87;1.87;;;21.20;99.70;;;;;;5050155;28;20283;-70
2023/07/13 07:10:13;;;;;;;5.73;1.40;;;21.20;98.20;;;;;;5049976;28;21039;-65
2023/07/13 07:12:39;;;;;;;6.13;1.57;;;21.20;98.30;;;;;;5050133;28;20450;-65
2023/07/13 07:15:05;;;;;;;4.63;1.23;;;21.30;97.10;;;;;;5050034;28;20216;-65
2023/07/13 07:17:30;;;;;;;3.27;1.50;;;21.30;95.50;;;;;;5050220;28;20185;-65
2023/07/13 07:19:56;;;;;;;4.60;1.60;;;21.30;95.00;;;;;;5050161;28;20841;-65
2023/07/13 07:22:22;;;;;;;4.37;1.53;;;21.50;96.60;;;;;;5050159;28;20739;-65
2023/07/13 07:24:48;;;;;;;4.33;1.80;;;21.50;94.50;;;;;;5050054;28;20181;-69
2023/07/13 07:27:13;;;;;;;3.23;1.30;;;21.50;96.20;;;;;;5050455;28;20192;-70
2023/07/13 07:29:39;;;;;;;2.67;1.63;;;21.60;97.50;;;;;;5049347;28;20599;-70
2023/07/13 07:32:05;;;;;;;2.80;1.60;;;21.50;97.90;;;;;;5049400;28;20668;-70
2023/07/13 07:34:31;;;;;;;2.80;1.63;;;21.80;97.40;;;;;;5049950;28;20240;-68
2023/07/13 07:37:00;;;;;;;3.73;1.57;;;21.80;98.00;;;;;;5050484;28;21002;-68
2023/07/13 07:39:26;;;;;;;2.70;1.47;;;21.90;98.30;;;;;;5050553;28;20467;-69
2023/07/13 07:41:52;;;;;;;3.77;1.57;;;21.90;97.00;;;;;;5048924;28;20454;-69
2023/07/13 07:44:18;;;;;;;6.40;1.73;;;21.80;94.20;;;;;;5050283;28;20193;-69
2023/07/13 07:46:43;;;;;;;1.97;1.50;;;21.80;95.20;;;;;;5050432;28;20658;-69
2023/07/13 07:49:09;;;;;;;5.03;1.57;;;21.90;94.80;;;;;;5049222;28;20260;-68
2023/07/13 07:51:35;;;;;;;9.93;1.30;;;22.00;94.40;;;;;;5050426;28;20222;-69
2023/07/13 07:54:00;;;;;;;4.90;1.47;;;22.10;95.60;;;;;;5049241;28;20385;-69
2023/07/13 07:56:26;;;;;;;3.70;1.20;;;22.10;95.30;;;;;;5050646;28;20191;-69
2023/07/13 07:58:51;;;;;;;2.27;1.40;;;22.20;92.50;;;;;;5050711;28;20588;-69
2023/07/13 08:01:17;;;;;;;3.40;1.23;;;22.30;91.40;;;;;;5032920;28;20202;-69
2023/07/13 08:03:43;;;;;;;4.90;1.60;;;22.40;91.40;;;;;;5050897;28;20194;-68
2023/07/13 08:06:08;;;;;;;4.17;1.23;;;22.60;91.20;;;;;;5050319;28;20191;-70
2023/07/13 08:08:35;;;;;;;2.90;1.03;;;22.60;91.00;;;;;;5050375;28;20185;-70
2023/07/13 08:11:04;;;;;;;4.30;1.53;;;22.80;91.90;;;;;;5050257;28;20213;-69
2023/07/13 08:13:30;;;;;;;8.33;1.17;;;22.80;90.90;;;;;;5050551;28;20424;-68
2023/07/13 08:15:55;;;;;;;6.27;1.77;;;22.90;90.60;;;;;;5050433;28;20540;-69
2023/07/13 08:18:21;;;;;;;3.20;1.27;;;23.10;90.30;;;;;;5049092;28;20214;-69
2023/07/13 08:20:46;;;;;;;4.73;1.47;;;23.10;90.30;;;;;;5049009;28;20175;-69
2023/07/13 08:23:12;;;;;;;4.60;1.30;;;23.10;88.90;;;;;;5050153;28;20265;-69
2023/07/13 08:25:38;;;;;;;3.07;1.13;;;23.20;89.40;;;;;;5048917;28;20643;-69
2023/07/13 08:28:04;;;;;;;6.53;1.37;;;23.30;90.10;;;;;;5050031;28;20183;-69
2023/07/13 08:30:30;;;;;;;3.47;1.27;;;23.50;90.00;;;;;;5049978;28;20302;-71
2023/07/13 08:32:57;;;;;;;4.20;1.40;;;23.50;90.10;;;;;;5048535;28;20527;-69
2023/07/13 08:35:22;;;;;;;3.00;1.33;;;23.40;85.30;;;;;;5049649;28;20175;-68
2023/07/13 08:37:48;;;;;;;3.10;1.67;;;23.50;87.70;;;;;;5049368;28;20807;-70
2023/07/13 08:40:13;;;;;;;4.67;1.47;;;23.60;86.90;;;;;;5049064;28;20278;-70
2023/07/13 08:42:45;;;;;;;4.30;1.57;;;23.60;87.10;;;;;;5048417;28;20218;-70
2023/07/13 08:45:14;;;;;;;2.67;1.10;;;23.60;84.30;;;;;;5049648;28;20206;-69
2023/07/13 08:47:45;;;;;;;1.60;1.40;;;23.60;84.90;;;;;;5049214;28;20417;-69
2023/07/13 08:50:18;;;;;;;4.17;1.47;;;23.80;85.40;;;;;;5049193;28;20491;-68
2023/07/13 08:52:44;;;;;;;4.53;1.27;;;24.00;86.70;;;;;;5047418;28;20457;-69
2023/07/13 08:55:46;;;;;;;3.57;1.40;;;24.00;85.00;;;;;;5048642;28;20417;-67
2023/07/13 08:58:18;;;;;;;2.97;1.27;;;23.80;84.00;;;;;;5046849;28;20571;-68
2023/07/13 09:00:57;;;;;;;2.03;1.33;;;24.00;86.60;;;;;;5048911;28;20571;-67
2023/07/13 09:03:27;;;;;;;3.00;1.40;;;23.90;83.00;;;;;;5048361;28;20418;-67
2023/07/13 09:05:58;;;;;;;4.30;1.50;;;24.10;85.60;;;;;;5048219;28;20452;-68
2023/07/13 09:08:49;;;;;;;4.50;1.63;;;24.40;85.60;;;;;;5048152;28;20421;-68
2023/07/13 09:11:27;;;;;;;4.03;1.43;;;24.60;84.40;;;;;;5047924;28;20898;-69
2023/07/13 09:14:18;;;;;;;4.03;1.63;;;24.90;83.00;;;;;;5047954;28;20445;-68
2023/07/13 09:16:46;;;;;;;2.10;1.30;;;25.20;83.70;;;;;;5047972;28;20488;-67
2023/07/13 09:19:28;;;;;;;3.33;1.20;;;25.40;85.10;;;;;;5047849;28;20473;-67
2023/07/13 09:21:56;;;;;;;3.10;1.10;;;25.50;81.30;;;;;;5047815;28;20445;-68
2023/07/13 09:24:33;;;;;;;2.17;1.00;;;25.60;82.20;;;;;;5046193;28;20438;-68
2023/07/13 09:27:00;;;;;;;2.50;1.30;;;25.70;78.90;;;;;;5047818;28;20471;-68
2023/07/13 09:29:34;;;;;;;2.80;1.20;;;25.80;80.90;;;;;;5047741;28;20497;-68
2023/07/13 09:32:04;;;;;;;2.70;1.23;;;25.50;78.90;;;;;;5046696;28;20446;-68
2023/07/13 09:34:31;;;;;;;4.80;1.50;;;25.60;78.30;;;;;;5048099;28;20531;-68
2023/07/13 09:36:57;;;;;;;3.30;1.03;;;25.70;77.80;;;;;;5048121;28;20422;-68
2023/07/13 09:39:29;;;;;;;2.27;1.50;;;25.80;81.20;;;;;;5047719;28;20524;-69
2023/07/13 09:42:17;;;;;;;4.00;1.20;;;26.20;78.70;;;;;;5046143;28;20203;-68
2023/07/13 09:44:58;;;;;;;2.10;1.17;;;26.60;78.50;;;;;;5048097;28;20457;-68
2023/07/13 09:47:37;;;;;;;1.97;1.20;;;27.10;77.50;;;;;;5048038;28;20475;-68
2023/07/13 09:50:09;;;;;;;4.23;1.27;;;27.50;77.90;;;;;;5048058;28;20428;-68
2023/07/13 09:52:47;;;;;;;3.70;1.30;;;27.70;77.20;;;;;;5047974;28;20466;-68
2023/07/13 09:55:36;;;;;;;3.33;1.20;;;27.00;77.30;;;;;;5046492;28;20472;-68
2023/07/13 09:58:14;;;;;;;3.20;1.33;;;26.80;77.90;;;;;;5047813;28;20418;-69
2023/07/13 10:00:40;;;;;;;4.57;1.80;;;27.10;75.40;;;;;;5048041;28;20505;-69
2023/07/13 10:03:14;;;;;;;8.73;1.50;;;27.50;80.50;;;;;;5046542;28;20500;-67
2023/07/13 10:05:42;;;;;;;6.13;2.03;;;27.40;77.30;;;;;;5047790;28;20433;-68
2023/07/13 10:08:27;;;;;;;5.00;1.43;;;27.20;77.10;;;;;;5047626;28;20422;-67
2023/07/13 10:11:22;;;;;;;5.73;1.47;;;27.10;76.40;;;;;;5047566;28;20446;-68
2023/07/13 10:13:55;;;;;;;3.63;1.63;;;27.40;74.10;;;;;;5047498;28;20425;-70
2023/07/13 10:16:22;;;;;;;8.10;1.20;;;26.80;73.50;;;;;;5047591;28;20509;-68
2023/07/13 10:19:01;;;;;;;4.00;1.33;;;26.60;75.00;;;;;;5047239;28;20462;-68
2023/07/13 10:21:33;;;;;;;1.77;0.90;;;26.30;76.50;;;;;;5047140;28;20434;-68
2023/07/13 10:24:20;;;;;;;9.80;1.50;;;26.50;77.50;;;;;;5047741;28;20414;-68
2023/07/13 10:27:07;;;;;;;5.33;1.53;;;26.50;77.60;;;;;;5047023;28;20514;-68
2023/07/13 10:29:45;;;;;;;1.40;1.30;;;27.00;74.30;;;;;;5045859;28;20538;-67
2023/07/13 10:32:14;;;;;;;2.37;1.30;;;27.50;74.00;;;;;;5047223;28;20496;-68
2023/07/13 10:34:46;;;;;;;4.73;1.50;;;27.40;72.00;;;;;;5045452;28;21294;-68
2023/07/13 10:37:28;;;;;;;2.80;1.00;;;27.20;74.30;;;;;;5045740;28;20422;-68
2023/07/13 10:39:57;;;;;;;3.03;1.63;;;27.10;73.80;;;;;;5046900;28;20570;-68
2023/07/13 10:42:30;;;;;;;1.93;0.90;;;26.70;73.40;;;;;;5046833;28;21005;-68
2023/07/13 10:44:56;;;;;;;3.43;1.03;;;26.90;72.50;;;;;;5045631;28;20422;-68
2023/07/13 10:47:23;;;;;;;2.70;1.00;;;27.00;75.90;;;;;;5046934;28;20425;-67
2023/07/13 10:49:53;;;;;;;2.30;1.10;;;27.00;71.60;;;;;;5046967;28;20360;-68
2023/07/13 10:52:51;;;;;;;5.80;1.53;;;27.20;71.30;;;;;;5047059;28;20787;-68
2023/07/13 10:55:36;;;;;;;5.60;1.50;;;27.10;68.30;;;;;;5046956;28;20977;-69
2023/07/13 10:58:11;;;;;;;5.00;1.20;;;26.80;70.40;;;;;;5046867;28;20410;-68
2023/07/13 11:00:46;;;;;;;7.40;1.33;;;27.10;76.10;;;;;;5045678;28;20910;-69
2023/07/13 11:03:15;;;;;;;1.60;1.20;;;27.60;74.60;;;;;;5047298;28;20416;-69
2023/07/13 11:05:41;;;;;;;2.10;0.80;;;27.90;69.20;;;;;;5048285;28;20441;-68
2023/07/13 11:08:20;;;;;;;2.77;1.30;;;28.00;70.10;;;;;;5049535;28;20528;-68
2023/07/13 11:10:55;;;;;;;3.80;1.00;;;28.10;68.90;;;;;;5050679;28;20233;-69
2023/07/13 11:13:38;;;;;;;5.77;1.00;;;28.40;64.00;;;;;;5049062;28;20587;-68
2023/07/13 11:16:44;;;;;;;4.50;1.27;;;28.20;65.10;;;;;;5049167;28;20742;-70
2023/07/13 11:19:15;;;;;;;6.27;1.30;;;28.00;65.40;;;;;;5049895;28;20504;-69
2023/07/13 11:22:07;;;;;;;2.50;1.40;;;27.90;64.70;;;;;;5050110;28;20434;-68
2023/07/13 11:25:00;;;;;;;4.10;1.10;;;28.20;69.00;;;;;;5050706;28;21028;-69
2023/07/13 11:27:42;;;;;;;4.17;1.00;;;28.70;66.90;;;;;;5050623;28;20410;-68
2023/07/13 11:30:28;;;;;;;7.23;1.40;;;28.90;63.60;;;;;;5049237;28;20834;-68
2023/07/13 11:33:07;;;;;;;5.83;1.50;;;28.90;62.40;;;;;;5050706;28;20436;-68
2023/07/13 11:35:40;;;;;;;4.30;1.03;;;29.00;65.60;;;;;;5050534;28;20879;-69
2023/07/13 11:38:16;;;;;;;7.73;1.67;;;29.10;63.30;;;;;;5050174;28;20424;-68
2023/07/13 11:40:46;;;;;;;2.97;1.60;;;29.50;63.30;;;;;;5050515;28;21012;-69
2023/07/13 11:43:15;;;;;;;1.43;0.80;;;29.50;62.10;;;;;;5050335;28;20454;-69
2023/07/13 11:45:41;;;;;;;2.83;1.40;;;29.50;62.40;;;;;;5050262;28;20415;-68
2023/07/13 11:48:22;;;;;;;3.67;0.90;;;29.30;60.90;;;;;;5050473;28;20467;-69
2023/07/13 11:50:58;;;;;;;3.50;1.17;;;29.50;64.00;;;;;;5050358;28;20421;-69
2023/07/13 11:53:28;;;;;;;3.53;1.40;;;29.40;61.30;;;;;;5049116;28;20429;-68
2023/07/13 11:55:53;;;;;;;1.60;1.20;;;29.50;62.70;;;;;;5050312;28;20414;-68
2023/07/13 11:58:23;;;;;;;3.97;1.60;;;29.60;60.10;;;;;;5048716;28;20829;-68
2023/07/13 12:00:50;;;;;;;3.93;1.40;;;29.60;58.60;;;;;;5049840;28;20665;-69
2023/07/13 12:03:20;;;;;;;6.73;1.40;;;29.70;59.10;;;;;;5050048;28;20473;-68
2023/07/13 12:06:00;;;;;;;4.63;1.50;;;29.80;58.20;;;;;;5049927;28;20948;-68
2023/07/13 12:08:27;;;;;;;2.40;1.10;;;30.20;59.60;;;;;;5048322;28;20948;-68
2023/07/13 12:11:04;;;;;;;1.87;1.27;;;30.50;61.40;;;;;;5049823;28;20433;-68
2023/07/13 12:13:37;;;;;;;3.90;1.10;;;30.70;58.00;;;;;;5049785;28;20424;-68
2023/07/13 12:16:12;;;;;;;3.07;1.33;;;30.90;58.70;;;;;;5048298;28;20462;-69
2023/07/13 12:18:38;;;;;;;4.50;1.13;;;30.90;56.80;;;;;;5047286;28;20473;-69
2023/07/13 12:21:05;;;;;;;3.97;1.30;;;30.90;58.40;;;;;;5049423;28;20422;-68
2023/07/13 12:23:34;;;;;;;6.13;1.33;;;30.50;58.90;;;;;;5049479;28;20477;-68
2023/07/13 12:26:03;;;;;;;1.60;1.00;;;30.40;59.20;;;;;;5049658;28;20428;-68
2023/07/13 12:28:48;;;;;;;4.17;1.83;;;30.20;59.70;;;;;;5049507;28;20528;-68
2023/07/13 12:31:26;;;;;;;4.67;1.40;;;29.60;59.00;;;;;;5049222;28;20430;-69
2023/07/13 12:34:06;;;;;;;5.63;1.40;;;29.70;58.70;;;;;;5049089;28;20425;-68
2023/07/13 12:36:34;;;;;;;3.57;1.20;;;29.90;59.30;;;;;;5049031;28;20452;-69
2023/07/13 12:39:14;;;;;;;3.63;1.40;;;30.20;58.20;;;;;;5048892;28;20546;-69
2023/07/13 12:41:40;;;;;;;7.20;1.57;;;30.10;59.20;;;;;;5048773;28;20922;-68
2023/07/13 12:44:17;;;;;;;7.07;1.17;;;30.00;58.40;;;;;;5046962;28;20452;-68
2023/07/13 12:47:04;;;;;;;2.40;1.10;;;29.50;57.40;;;;;;5048247;28;20325;-69
2023/07/13 12:49:34;;;;;;;3.53;1.10;;;28.80;56.60;;;;;;5047085;28;20876;-70
2023/07/13 12:52:03;;;;;;;5.77;1.73;;;28.20;56.40;;;;;;5046570;28;20588;-68
2023/07/13 12:54:29;;;;;;;3.47;1.40;;;27.90;58.00;;;;;;5046694;28;20429;-68
2023/07/13 12:56:58;;;;;;;4.87;1.77;;;27.80;59.70;;;;;;5046314;28;20431;-69